createdAt,value
2023-01-28T00:02:13.728Z,68.81
2023-01-28T00:04:42.224Z,69.05
2023-01-28T00:07:10.957Z,68.61
2023-01-28T00:09:39.778Z,68.29
2023-01-28T00:12:08.232Z,68.65
2023-01-28T00:14:36.590Z,68.62
2023-01-28T00:17:06.186Z,68.89
2023-01-28T00:19:34.529Z,68.39
2023-01-28T00:22:04.585Z,68.44
2023-01-28T00:24:33.404Z,68.64
2023-01-28T00:27:01.771Z,68.89
2023-01-28T00:29:30.269Z,68.68
2023-01-28T00:31:58.843Z,68.82
2023-01-28T00:34:30.877Z,68.45
2023-01-28T00:36:59.426Z,68.54
2023-01-28T00:39:27.834Z,68.52
2023-01-28T00:41:56.290Z,68.52
2023-01-28T00:44:26.275Z,69.17
2023-01-28T00:46:54.599Z,69.49
2023-01-28T00:49:23.713Z,69.41
2023-01-28T00:51:52.136Z,69.08
2023-01-28T00:54:21.050Z,69.15
2023-01-28T00:56:49.545Z,68.85
2023-01-28T00:59:18.377Z,69.27
2023-01-28T01:01:47.065Z,69.00
2023-01-28T01:04:27.074Z,69.43
2023-01-28T01:06:55.655Z,69.06
2023-01-28T01:09:24.310Z,69.20
2023-01-28T01:11:52.778Z,69.45
2023-01-28T01:14:21.162Z,69.74
2023-01-28T01:16:49.518Z,69.71
2023-01-28T01:19:20.964Z,69.56
2023-01-28T01:21:50.980Z,69.56
2023-01-28T01:24:19.562Z,69.31
2023-01-28T01:26:48.011Z,69.28
2023-01-28T01:29:16.377Z,69.60
2023-01-28T01:31:45.369Z,69.51
2023-01-28T01:34:13.813Z,69.39
2023-01-28T01:36:44.229Z,69.51
2023-01-28T01:39:13.225Z,69.24
2023-01-28T01:41:42.526Z,69.57
2023-01-28T01:44:48.094Z,69.26
2023-01-28T01:47:18.340Z,69.58
2023-01-28T01:49:47.155Z,69.56
2023-01-28T01:52:21.289Z,69.53
2023-01-28T01:54:53.761Z,69.91
2023-01-28T01:57:27.641Z,69.74
2023-01-28T02:00:06.046Z,69.65
2023-01-28T02:02:47.261Z,69.93
2023-01-28T02:05:20.631Z,69.46
2023-01-28T02:07:52.308Z,69.39
2023-01-28T02:10:22.041Z,69.70
2023-01-28T02:12:56.396Z,69.79
2023-01-28T02:15:27.894Z,69.66
2023-01-28T02:17:57.978Z,70.25
2023-01-28T02:20:38.541Z,70.04
2023-01-28T02:23:41.184Z,69.97
2023-01-28T02:26:47.060Z,70.27
2023-01-28T02:29:35.041Z,69.95
2023-01-28T02:32:34.129Z,70.27
2023-01-28T02:35:25.906Z,69.81
2023-01-28T02:38:00.914Z,69.61
2023-01-28T02:40:34.553Z,69.68
2023-01-28T02:43:03.040Z,70.17
2023-01-28T02:45:52.245Z,69.90
2023-01-28T02:48:23.544Z,70.07
2023-01-28T02:51:41.796Z,70.19
2023-01-28T02:54:19.248Z,70.07
2023-01-28T02:57:22.590Z,70.35
2023-01-28T03:00:09.325Z,70.17
2023-01-28T03:03:13.323Z,69.96
2023-01-28T03:06:07.037Z,70.08
2023-01-28T03:09:04.948Z,69.98
2023-01-28T03:11:58.372Z,70.39
2023-01-28T03:14:47.325Z,70.15
2023-01-28T03:17:42.378Z,70.47
2023-01-28T03:20:30.566Z,70.40
2023-01-28T03:23:27.735Z,70.33
2023-01-28T03:26:19.085Z,70.16
2023-01-28T03:29:09.098Z,70.24
2023-01-28T03:31:57.107Z,70.19
2023-01-28T03:34:44.948Z,70.65
2023-01-28T03:37:15.827Z,70.20
2023-01-28T03:39:50.017Z,70.25
2023-01-28T03:42:19.550Z,70.16
2023-01-28T03:45:09.016Z,70.47
2023-01-28T03:47:40.727Z,70.52
2023-01-28T03:50:10.202Z,70.39
2023-01-28T03:52:49.236Z,70.08
2023-01-28T03:55:26.037Z,69.78
2023-01-28T03:57:54.948Z,70.00
2023-01-28T04:00:25.808Z,70.45
2023-01-28T04:02:56.516Z,70.41
2023-01-28T04:05:26.202Z,70.95
2023-01-28T04:07:55.807Z,71.02
2023-01-28T04:10:38.610Z,70.72
2023-01-28T04:13:13.971Z,70.22
2023-01-28T04:15:43.593Z,70.70
2023-01-28T04:18:12.441Z,70.22
2023-01-28T04:20:41.032Z,70.55
2023-01-28T04:23:10.106Z,70.27
2023-01-28T04:25:38.408Z,70.72
2023-01-28T04:28:09.521Z,70.43
2023-01-28T04:30:37.922Z,70.79
2023-01-28T04:33:13.433Z,70.25
2023-01-28T04:35:56.914Z,70.33
2023-01-28T04:38:44.165Z,70.67
2023-01-28T04:41:24.098Z,70.80
2023-01-28T04:43:52.762Z,70.61
2023-01-28T04:46:42.610Z,70.55
2023-01-28T04:49:15.853Z,70.39
2023-01-28T04:51:53.800Z,69.91
2023-01-28T04:54:48.901Z,69.97
2023-01-28T04:57:18.873Z,70.29
2023-01-28T04:59:47.429Z,69.97
2023-01-28T05:02:17.155Z,70.22
2023-01-28T05:04:46.737Z,69.89
2023-01-28T05:07:28.161Z,70.08
2023-01-28T05:09:56.513Z,69.65
2023-01-28T05:12:24.750Z,69.94
2023-01-28T05:14:53.494Z,69.74
2023-01-28T05:17:23.104Z,69.78
2023-01-28T05:19:51.664Z,69.68
2023-01-28T05:22:24.789Z,69.98
2023-01-28T05:25:22.520Z,69.78
2023-01-28T05:27:52.305Z,69.70
2023-01-28T05:30:21.731Z,70.47
2023-01-28T05:32:50.423Z,69.67
2023-01-28T05:35:23.501Z,69.82
2023-01-28T05:37:52.159Z,69.49
2023-01-28T05:40:20.809Z,69.53
2023-01-28T05:42:49.347Z,69.74
2023-01-28T05:45:43.886Z,69.42
2023-01-28T05:48:22.562Z,69.26
2023-01-28T05:51:09.473Z,69.78
2023-01-28T05:53:40.095Z,69.25
2023-01-28T05:56:08.975Z,69.43
2023-01-28T05:58:38.960Z,69.17
2023-01-28T06:01:14.530Z,69.45
2023-01-28T06:03:47.054Z,69.50
2023-01-28T06:06:15.490Z,69.53
2023-01-28T06:08:43.833Z,69.22
2023-01-28T06:11:12.621Z,69.34
2023-01-28T06:13:41.955Z,69.15
2023-01-28T06:16:36.716Z,69.78
2023-01-28T06:19:23.962Z,69.48
2023-01-28T06:21:52.269Z,69.81
2023-01-28T06:24:21.548Z,69.28
2023-01-28T06:26:50.122Z,69.42
2023-01-28T06:29:19.646Z,68.92
2023-01-28T06:31:48.025Z,68.74
2023-01-28T06:34:16.595Z,69.25
2023-01-28T06:36:45.230Z,69.26
2023-01-28T06:39:13.593Z,69.05
2023-01-28T06:41:42.281Z,69.67
2023-01-28T06:44:10.643Z,69.69
2023-01-28T06:46:39.208Z,70.19
2023-01-28T06:49:08.278Z,70.40
2023-01-28T06:51:36.600Z,70.28
2023-01-28T06:54:05.194Z,71.46
2023-01-28T06:56:33.553Z,70.76
2023-01-28T06:59:02.353Z,70.68
2023-01-28T07:01:30.756Z,71.31
2023-01-28T07:03:59.190Z,71.35
2023-01-28T07:06:27.612Z,71.69
2023-01-28T07:08:55.925Z,71.64
2023-01-28T07:11:24.306Z,71.50
2023-01-28T07:13:52.729Z,71.87
2023-01-28T07:16:21.025Z,72.10
2023-01-28T07:18:49.927Z,71.31
2023-01-28T07:21:18.187Z,71.36
2023-01-28T07:23:46.685Z,71.04
2023-01-28T07:26:15.760Z,70.69
2023-01-28T07:28:44.293Z,71.01
2023-01-28T07:31:12.826Z,71.29
2023-01-28T07:33:41.302Z,70.86
2023-01-28T07:36:09.691Z,71.02
2023-01-28T07:38:38.528Z,71.41
2023-01-28T07:41:07.187Z,71.00
2023-01-28T07:43:35.530Z,71.09
2023-01-28T07:46:04.063Z,70.86
2023-01-28T07:48:32.633Z,71.56
2023-01-28T07:51:01.763Z,71.68
2023-01-28T07:53:30.158Z,72.23
2023-01-28T07:56:02.199Z,71.66
2023-01-28T07:58:32.791Z,71.34
2023-01-28T08:01:01.869Z,71.07
2023-01-28T08:03:30.354Z,70.78
2023-01-28T08:05:59.151Z,71.13
2023-01-28T08:08:28.388Z,69.83
2023-01-28T08:10:56.879Z,69.01
2023-01-28T08:13:25.576Z,68.24
2023-01-28T08:15:56.931Z,68.51
2023-01-28T08:18:25.625Z,68.00
2023-01-28T08:20:57.915Z,68.52
2023-01-28T08:23:27.528Z,67.63
2023-01-28T08:25:58.988Z,67.75
2023-01-28T08:28:28.009Z,67.51
2023-01-28T08:30:56.365Z,67.39
2023-01-28T08:33:25.197Z,67.12
2023-01-28T08:35:53.533Z,66.79
2023-01-28T08:38:21.893Z,67.39
2023-01-28T08:40:55.959Z,67.72
2023-01-28T08:43:24.737Z,67.21
2023-01-28T08:45:53.167Z,66.09
2023-01-28T08:48:22.046Z,66.15
2023-01-28T08:50:51.022Z,65.70
2023-01-28T08:53:20.822Z,65.74
2023-01-28T08:55:49.241Z,65.58
2023-01-28T08:58:18.921Z,65.13
2023-01-28T09:00:48.044Z,65.38
2023-01-28T09:03:17.497Z,65.58
2023-01-28T09:05:45.947Z,64.90
2023-01-28T09:08:15.599Z,64.81
2023-01-28T09:10:44.299Z,64.77
2023-01-28T09:13:16.073Z,65.79
2023-01-28T09:15:44.526Z,65.40
2023-01-28T09:18:13.027Z,64.66
2023-01-28T09:20:41.465Z,64.68
2023-01-28T09:23:09.992Z,65.51
2023-01-28T09:25:38.529Z,65.79
2023-01-28T09:28:07.389Z,65.22
2023-01-28T09:30:37.783Z,65.57
2023-01-28T09:33:07.593Z,64.73
2023-01-28T09:35:37.023Z,65.58
2023-01-28T09:38:05.894Z,65.97
2023-01-28T09:40:42.480Z,65.06
2023-01-28T09:43:36.055Z,65.65
2023-01-28T09:46:07.295Z,65.77
2023-01-28T09:48:49.377Z,65.40
2023-01-28T09:51:30.045Z,64.37
2023-01-28T09:54:04.780Z,64.60
2023-01-28T09:56:51.707Z,64.82
2023-01-28T09:59:23.025Z,64.89
2023-01-28T10:02:04.540Z,64.60
2023-01-28T10:04:36.021Z,64.07
2023-01-28T10:07:39.464Z,64.04
2023-01-28T10:10:20.329Z,63.87
2023-01-28T10:13:18.964Z,64.55
2023-01-28T10:16:15.057Z,64.17
2023-01-28T10:18:50.417Z,63.65
2023-01-28T10:21:30.142Z,63.93
2023-01-28T10:24:24.377Z,63.20
2023-01-28T10:26:54.195Z,63.43
2023-01-28T10:29:27.178Z,63.95
2023-01-28T10:31:59.881Z,63.67
2023-01-28T10:34:28.353Z,63.74
2023-01-28T10:36:58.198Z,63.30
2023-01-28T10:39:28.614Z,63.24
2023-01-28T10:41:58.498Z,63.53
2023-01-28T10:44:38.405Z,63.38
2023-01-28T10:47:15.132Z,63.41
2023-01-28T10:49:53.280Z,63.33
2023-01-28T10:52:22.109Z,63.71
2023-01-28T10:55:04.115Z,63.35
2023-01-28T10:57:35.393Z,64.14
2023-01-28T11:00:20.005Z,64.57
2023-01-28T11:02:49.771Z,63.27
2023-01-28T11:05:21.717Z,63.32
2023-01-28T11:07:50.681Z,63.21
2023-01-28T11:10:40.618Z,63.25
2023-01-28T11:13:20.049Z,63.03
2023-01-28T11:16:02.183Z,62.68
2023-01-28T11:18:47.228Z,63.80
2023-01-28T11:21:29.681Z,63.38
2023-01-28T11:24:15.967Z,63.41
2023-01-28T11:26:48.293Z,63.26
2023-01-28T11:29:26.764Z,63.42
2023-01-28T11:31:56.549Z,63.59
2023-01-28T11:34:35.067Z,63.62
2023-01-28T11:37:16.587Z,63.33
2023-01-28T11:39:45.124Z,63.54
2023-01-28T11:42:18.460Z,63.37
2023-01-28T11:44:47.746Z,63.79
2023-01-28T11:47:43.643Z,63.49
2023-01-28T11:50:16.857Z,63.60
2023-01-28T11:53:04.831Z,63.81
2023-01-28T11:55:53.783Z,63.25
2023-01-28T11:58:37.083Z,64.11
2023-01-28T12:01:11.692Z,62.77
2023-01-28T12:03:51.523Z,63.44
2023-01-28T12:06:36.855Z,63.29
2023-01-28T12:09:45.575Z,63.50
2023-01-28T12:12:20.126Z,63.96
2023-01-28T12:15:27.171Z,63.77
2023-01-28T12:18:14.201Z,63.19
2023-01-28T12:20:45.049Z,63.48
2023-01-28T12:23:52.217Z,63.13
2023-01-28T12:26:46.744Z,63.42
2023-01-28T12:29:36.396Z,63.28
2023-01-28T12:32:29.116Z,63.55
2023-01-28T12:35:19.201Z,64.37
2023-01-28T12:38:16.320Z,63.97
2023-01-28T12:40:59.951Z,63.30
2023-01-28T12:43:40.053Z,63.78
2023-01-28T12:46:17.303Z,63.72
2023-01-28T12:49:04.313Z,64.10
2023-01-28T12:51:55.215Z,63.43
2023-01-28T12:54:34.428Z,64.22
2023-01-28T12:57:03.909Z,63.83
2023-01-28T12:59:53.809Z,64.55
2023-01-28T13:02:40.904Z,63.74
2023-01-28T13:05:23.129Z,64.52
2023-01-28T13:08:12.055Z,64.13
2023-01-28T13:10:44.582Z,64.68
2023-01-28T13:13:37.596Z,64.91
2023-01-28T13:16:09.804Z,64.64
2023-01-28T13:18:41.220Z,64.80
2023-01-28T13:21:14.581Z,64.86
2023-01-28T13:23:46.593Z,65.20
2023-01-28T13:26:18.347Z,65.34
2023-01-28T13:28:49.889Z,64.92
2023-01-28T13:31:24.636Z,64.52
2023-01-28T13:33:56.098Z,65.17
2023-01-28T13:36:45.926Z,65.25
2023-01-28T13:39:17.245Z,65.26
2023-01-28T13:41:48.141Z,66.05
2023-01-28T13:44:30.164Z,65.81
2023-01-28T13:47:24.776Z,66.13
2023-01-28T13:50:13.932Z,66.15
2023-01-28T13:52:51.297Z,66.27
2023-01-28T13:55:41.554Z,66.98
2023-01-28T13:58:21.230Z,66.83
2023-01-28T14:01:05.310Z,67.30
2023-01-28T14:03:39.384Z,67.08
2023-01-28T14:06:25.967Z,67.29
2023-01-28T14:09:15.985Z,67.74
2023-01-28T14:11:56.364Z,67.85
2023-01-28T14:14:24.563Z,67.75
2023-01-28T14:17:01.261Z,68.31
2023-01-28T14:19:34.011Z,68.28
2023-01-28T14:22:09.747Z,68.63
2023-01-28T14:24:39.891Z,68.40
2023-01-28T14:27:23.615Z,68.58
2023-01-28T14:30:28.852Z,68.73
2023-01-28T14:32:58.160Z,68.75
2023-01-28T14:35:34.397Z,68.80
2023-01-28T14:38:09.559Z,68.57
2023-01-28T14:40:40.358Z,68.47
2023-01-28T14:43:16.108Z,68.75
2023-01-28T14:45:53.216Z,68.17
2023-01-28T14:48:38.639Z,68.67
2023-01-28T14:51:25.665Z,68.76
2023-01-28T14:54:03.524Z,69.03
2023-01-28T14:56:46.201Z,69.36
2023-01-28T14:59:20.931Z,69.64
2023-01-28T15:01:49.854Z,69.52
2023-01-28T15:04:33.304Z,69.87
2023-01-28T15:07:17.994Z,69.82
2023-01-28T15:09:46.823Z,69.76
2023-01-28T15:12:17.436Z,69.80
2023-01-28T15:14:48.077Z,69.81
2023-01-28T15:17:26.083Z,70.14
2023-01-28T15:19:58.160Z,70.01
2023-01-28T15:22:28.800Z,70.15
2023-01-28T15:24:57.662Z,70.59
2023-01-28T15:27:30.130Z,70.51
2023-01-28T15:30:00.793Z,70.64
2023-01-28T15:32:31.393Z,70.70
2023-01-28T15:35:01.382Z,70.69
2023-01-28T15:37:29.709Z,70.76
2023-01-28T15:40:06.621Z,70.55
2023-01-28T15:42:35.345Z,70.44
2023-01-28T15:45:04.692Z,69.98
2023-01-28T15:47:35.953Z,70.34
2023-01-28T15:50:15.800Z,70.56
2023-01-28T15:52:46.216Z,70.40
2023-01-28T15:55:36.760Z,69.99
2023-01-28T15:58:31.143Z,70.27
2023-01-28T16:01:09.270Z,70.68
2023-01-28T16:03:40.635Z,70.83
2023-01-28T16:06:22.660Z,70.50
2023-01-28T16:09:00.236Z,70.47
2023-01-28T16:11:32.621Z,70.73
2023-01-28T16:14:01.750Z,70.75
2023-01-28T16:16:38.352Z,70.58
2023-01-28T16:19:07.747Z,70.73
2023-01-28T16:21:43.679Z,70.97
2023-01-28T16:24:33.300Z,70.98
2023-01-28T16:27:29.442Z,70.87
2023-01-28T16:29:58.058Z,70.98
2023-01-28T16:32:37.378Z,71.18
2023-01-28T16:35:23.840Z,70.74
2023-01-28T16:37:52.188Z,70.97
2023-01-28T16:40:23.339Z,71.00
2023-01-28T16:42:56.375Z,71.27
2023-01-28T16:45:25.839Z,71.17
2023-01-28T16:47:54.197Z,71.28
2023-01-28T16:50:23.240Z,71.25
2023-01-28T16:52:54.996Z,71.65
2023-01-28T16:55:23.887Z,71.86
2023-01-28T16:57:56.066Z,72.07
2023-01-28T17:00:27.266Z,72.19
2023-01-28T17:02:55.672Z,72.14
2023-01-28T17:05:24.199Z,72.27
2023-01-28T17:07:55.157Z,72.25
2023-01-28T17:10:23.462Z,72.79
2023-01-28T17:12:52.042Z,72.69
2023-01-28T17:15:20.459Z,73.24
2023-01-28T17:17:49.910Z,73.20
2023-01-28T17:20:18.317Z,72.96
2023-01-28T17:22:46.675Z,73.54
2023-01-28T17:25:15.769Z,73.46
2023-01-28T17:27:45.134Z,73.48
2023-01-28T17:30:14.184Z,73.72
2023-01-28T17:32:42.547Z,73.56
2023-01-28T17:35:12.484Z,74.03
2023-01-28T17:37:40.948Z,73.89
2023-01-28T17:40:12.573Z,74.04
2023-01-28T17:42:41.061Z,74.25
2023-01-28T17:45:09.631Z,74.40
2023-01-28T17:47:38.514Z,74.36
2023-01-28T17:50:07.123Z,74.50
2023-01-28T17:52:35.475Z,74.55
2023-01-28T17:55:04.674Z,74.83
2023-01-28T17:57:33.425Z,75.05
2023-01-28T18:00:02.574Z,75.32
2023-01-28T18:02:40.605Z,74.72
2023-01-28T18:05:09.459Z,75.21
2023-01-28T18:07:37.900Z,75.05
2023-01-28T18:10:07.173Z,75.49
2023-01-28T18:12:35.831Z,75.37
2023-01-28T18:15:04.415Z,75.40
2023-01-28T18:17:32.925Z,75.92
2023-01-28T18:20:01.238Z,75.55
2023-01-28T18:22:29.807Z,76.01
2023-01-28T18:24:58.191Z,75.70
2023-01-28T18:27:27.482Z,76.27
2023-01-28T18:29:55.911Z,76.17
2023-01-28T18:32:25.691Z,76.49
2023-01-28T18:34:54.112Z,76.30
2023-01-28T18:37:22.464Z,76.63
2023-01-28T18:39:50.831Z,76.28
2023-01-28T18:42:19.173Z,76.86
2023-01-28T18:44:47.706Z,76.86
2023-01-28T18:47:17.834Z,76.49
2023-01-28T18:49:46.131Z,76.51
2023-01-28T18:52:14.516Z,76.95
2023-01-28T18:54:42.922Z,77.02
2023-01-28T18:57:15.726Z,77.05
2023-01-28T18:59:44.143Z,77.01
2023-01-28T19:02:14.535Z,77.01
2023-01-28T19:04:43.063Z,77.18
2023-01-28T19:07:12.156Z,77.12
2023-01-28T19:09:40.555Z,77.66
2023-01-28T19:12:08.938Z,77.34
2023-01-28T19:14:37.691Z,77.45
2023-01-28T19:17:06.478Z,77.72
2023-01-28T19:19:35.150Z,77.67
2023-01-28T19:22:03.722Z,77.91
2023-01-28T19:24:32.897Z,77.90
2023-01-28T19:27:02.208Z,77.68
2023-01-28T19:29:30.717Z,78.13
2023-01-28T19:31:59.031Z,77.96
2023-01-28T19:34:27.504Z,77.94
2023-01-28T19:36:55.849Z,78.20
2023-01-28T19:39:24.303Z,78.09
2023-01-28T19:41:52.691Z,78.13
2023-01-28T19:44:21.051Z,78.23
2023-01-28T19:46:49.365Z,78.26
2023-01-28T19:49:17.820Z,78.38
2023-01-28T19:51:46.352Z,78.22
2023-01-28T19:54:14.682Z,78.21
2023-01-28T19:56:42.996Z,78.38
2023-01-28T19:59:11.457Z,78.29
2023-01-28T20:01:40.704Z,78.66
2023-01-28T20:04:09.156Z,78.67
2023-01-28T20:06:37.905Z,78.51
2023-01-28T20:09:15.708Z,78.58
2023-01-28T20:11:44.037Z,78.49
2023-01-28T20:14:12.934Z,78.49
2023-01-28T20:16:41.810Z,78.57
2023-01-28T20:19:18.008Z,78.47
2023-01-28T20:21:47.521Z,78.66
2023-01-28T20:24:16.024Z,78.61
2023-01-28T20:26:45.272Z,79.22
2023-01-28T20:29:20.871Z,78.93
2023-01-28T20:32:09.035Z,79.28
2023-01-28T20:34:38.935Z,79.34
2023-01-28T20:37:10.308Z,79.15
2023-01-28T20:39:38.720Z,79.65
2023-01-28T20:42:09.856Z,79.59
2023-01-28T20:44:38.256Z,79.46
2023-01-28T20:47:07.915Z,79.48
2023-01-28T20:49:36.298Z,79.64
2023-01-28T20:52:04.728Z,79.70
2023-01-28T20:54:33.001Z,79.71
2023-01-28T20:57:01.357Z,79.63
2023-01-28T20:59:31.470Z,79.66
2023-01-28T21:02:01.028Z,79.65
2023-01-28T21:04:29.751Z,79.79
2023-01-28T21:06:58.126Z,79.59
2023-01-28T21:09:28.125Z,79.71
2023-01-28T21:11:56.446Z,80.02
2023-01-28T21:14:24.782Z,79.89
2023-01-28T21:16:53.302Z,79.97
2023-01-28T21:19:21.895Z,80.06
2023-01-28T21:21:50.319Z,80.18
2023-01-28T21:24:19.082Z,80.13
2023-01-28T21:26:47.513Z,80.27
2023-01-28T21:29:16.084Z,80.06
2023-01-28T21:31:44.733Z,80.20
2023-01-28T21:34:14.624Z,80.36
2023-01-28T21:36:45.426Z,80.13
2023-01-28T21:39:13.641Z,80.14
2023-01-28T21:41:41.852Z,80.03
2023-01-28T21:44:12.166Z,80.01
2023-01-28T21:46:40.741Z,79.85
2023-01-28T21:49:11.104Z,80.25
2023-01-28T21:51:39.772Z,80.04
2023-01-28T21:54:13.584Z,80.02
2023-01-28T21:56:45.771Z,80.09
2023-01-28T21:59:33.358Z,80.30
2023-01-28T22:02:13.727Z,80.42
2023-01-28T22:04:44.899Z,80.04
2023-01-28T22:07:19.072Z,80.21
2023-01-28T22:09:48.018Z,80.24
2023-01-28T22:12:16.477Z,80.27
2023-01-28T22:14:45.902Z,80.00
2023-01-28T22:17:15.252Z,80.34
2023-01-28T22:19:48.342Z,80.16
2023-01-28T22:22:17.881Z,80.48
2023-01-28T22:24:46.249Z,80.65
2023-01-28T22:27:15.245Z,80.33
2023-01-28T22:29:43.577Z,80.79
2023-01-28T22:32:11.865Z,80.27
2023-01-28T22:34:40.143Z,80.53
2023-01-28T22:37:10.905Z,80.68
2023-01-28T22:39:40.066Z,80.91
2023-01-28T22:42:08.438Z,80.72
2023-01-28T22:44:36.797Z,80.87
2023-01-28T22:47:05.602Z,80.69
2023-01-28T22:49:34.587Z,81.09
2023-01-28T22:52:02.908Z,81.08
2023-01-28T22:54:31.589Z,80.53
2023-01-28T22:57:00.332Z,80.93
2023-01-28T22:59:29.094Z,81.07
2023-01-28T23:01:58.763Z,80.63
2023-01-28T23:04:28.425Z,80.83
2023-01-28T23:06:57.141Z,81.10
2023-01-28T23:09:26.062Z,80.86
2023-01-28T23:11:54.587Z,80.89
2023-01-28T23:14:42.955Z,80.73
2023-01-28T23:17:30.213Z,80.86
2023-01-28T23:20:17.641Z,80.70
2023-01-28T23:23:06.234Z,81.32
2023-01-28T23:25:34.615Z,80.42
2023-01-28T23:28:02.939Z,80.99
2023-01-28T23:30:31.712Z,80.82
2023-01-28T23:33:02.063Z,80.82
2023-01-28T23:35:32.882Z,81.08
2023-01-28T23:38:01.188Z,81.23
2023-01-28T23:40:29.684Z,80.84
2023-01-28T23:42:58.695Z,80.42
2023-01-28T23:45:27.357Z,81.13
2023-01-28T23:47:55.749Z,80.34
2023-01-28T23:50:24.220Z,80.40
2023-01-28T23:52:52.627Z,80.58
2023-01-28T23:55:21.021Z,80.57
2023-01-28T23:57:49.344Z,81.03
